KRWI/RWI METAR and TAF weather

Enter ICAO airport designator
Station Type Date Time Source
KRWI METAR 2018/12/13 21:53 UTC NOAA

KRWI 132153Z AUTO 00000KT 10SM CLR 08/03 A3032 RMK AO2 SLP268 T00830033


Station Type Date Time Source
KRWI Decoded METAR 2018/12/13 21:53 UTC NOAA

ROCKY MOUNT-WILSON AIRPORT, NC, United States (KRWI) 35-51N 077-54W 47M
Dec 13, 2018 - 04:53 PM EST / 2018.12.13 2153 UTC
Wind: Calm:0
Visibility: 10 mile(s):0
Sky conditions: clear
Temperature: 46.9 F (8.3 C)
Dew Point: 37.9 F (3.3 C)
Relative Humidity: 70%
Pressure (altimeter): 30.32 in. Hg (1026 hPa)
ob: KRWI 132153Z AUTO 00000KT 10SM CLR 08/03 A3032 RMK AO2 SLP268 T00830033
cycle: 22

Station Type Date Time Source
KRWI TAF 2018/12/13 18:42 UTC NOAA

TAF KRWI 131739Z 1318/1418 VRB03KT P6SM BKN200
FM140800 VRB03KT P6SM BKN060
FM141200 05006KT P6SM -SHRA BKN060
FM141700 08007G14KT P6SM -SHRA OVC045


Example: see airport list